SBOSBO RUH / OERK
Speedbird OnlineSpeedbird Online RUH / OERK

King Khaled International Airport
23:16 29°C

Location Riyadh, Saudi Arabia
Latitude: 24.957599639892578
Longitude: 46.69879913330078
Web Wikipedia
Altitude 625 Meter / 2049 Feet
Distance 4,904 KM / 3,047 Miles
from London.
Time Zone UTC +3 hours (Asia/Riyadh)
Codes IATA: RUH
ICAO: OERK
Currency £1 equals SAR 4.09
Runways
RunwayLength (m)Surface
15L4205Asphalt
15R4205Asphalt
33L4205Asphalt
33R4205Asphalt
Radio
TypeDescriptionFrequency
APPRIYADH APP120
ATISATIS127.15
Ctrl126
GNDGND121.6
TWRTWR118.6
Live ATC
METAR OERK 242000Z 35003KT CAVOK 29/02 Q1013 NOSIG
TAF TAF OERK 241700Z 2418/2524 33012KT 7000 NSC BECMG 2505/2507 03022KT TEMPO 2506/2520 3000 BLDU PROB30 TEMPO 2508/2515 1000
Weather As Of 24 Sep 2022 23:16
Description Clear sky
Wind 6 km/h from North (350°)
Cloud Cover 0%
Precipitation Rain: none, Snow: none
Sunrise 05:42
Sunset 17:48
Lounges Premier Lounge , Terminal 1
Wellcome Lounge, Terminal 2
Rotations During the last 90 days there were
67 flights from LHR
71 flights to LHR


© 2017-2022 Speedbird Online